Time;durP1;ratioP1;P1;durP2;ratioP2;P2;SDS_P1;SDS_P2;PMS_P1;PMS_P2;Temp;Humidity;BMP_temperature;BMP_pressure;BME280_temperature;BME280_humidity;BME280_pressure;Samples;Min_cycle;Max_cycle;Signal;HPM_P1;HPM_P2
2023/08/23 00:01:15;;;;;;;4.03;2.35;;;;;;;18.89;100.00;101007.81;8301344;28;20429;-59
2023/08/23 00:05:16;;;;;;;6.10;2.90;;;;;;;18.92;100.00;101012.06;8302993;28;20565;-58
2023/08/23 00:09:17;;;;;;;9.18;2.65;;;;;;;19.00;100.00;101021.06;8305614;28;20072;-58
2023/08/23 00:13:17;;;;;;;4.88;2.63;;;;;;;19.09;100.00;101025.47;8298338;28;20109;-59
2023/08/23 00:17:18;;;;;;;5.57;2.60;;;;;;;18.94;100.00;101016.31;8302813;28;20052;-58
2023/08/23 00:21:18;;;;;;;6.70;2.08;;;;;;;18.79;100.00;101012.66;8303004;28;20029;-58
2023/08/23 00:25:19;;;;;;;4.28;2.40;;;;;;;18.88;100.00;101011.56;8305817;28;20037;-58
2023/08/23 00:29:19;;;;;;;3.45;2.58;;;;;;;18.85;100.00;101014.66;8280048;28;20035;-59
2023/08/23 00:33:21;;;;;;;7.68;3.20;;;;;;;18.63;100.00;101006.44;8268931;28;20425;-58
2023/08/23 00:37:21;;;;;;;4.85;3.65;;;;;;;18.75;100.00;101005.84;8300317;28;20418;-58
2023/08/23 00:41:22;;;;;;;3.67;2.80;;;;;;;18.62;100.00;101010.22;8303590;28;20045;-58
2023/08/23 00:45:23;;;;;;;11.50;3.50;;;;;;;18.54;100.00;101008.38;8305562;28;20180;-59
2023/08/23 00:49:24;;;;;;;7.70;3.42;;;;;;;18.58;100.00;101007.00;8303980;28;20037;-58
2023/08/23 00:53:24;;;;;;;8.05;3.20;;;;;;;18.54;100.00;101004.78;8304319;28;20085;-58
2023/08/23 00:57:25;;;;;;;8.88;3.30;;;;;;;18.44;100.00;101002.28;8288037;28;20038;-57
2023/08/23 01:01:25;;;;;;;5.43;3.28;;;;;;;18.55;100.00;101004.63;8276914;28;20423;-58
2023/08/23 01:05:39;;;;;;;11.27;3.60;;;;;;;18.45;100.00;101001.22;8283473;28;20404;-57
2023/08/23 01:09:54;;;;;;;5.65;3.65;;;;;;;18.31;100.00;101004.72;8275641;28;20072;-58
2023/08/23 01:14:05;;;;;;;5.50;3.20;;;;;;;18.38;100.00;101008.47;8310114;28;20030;-58
2023/08/23 01:18:06;;;;;;;6.70;3.42;;;;;;;18.42;100.00;101008.97;8309212;28;20057;-58
2023/08/23 01:22:10;;;;;;;4.80;3.17;;;;;;;18.20;100.00;101002.34;8307472;28;20045;-59
2023/08/23 01:26:10;;;;;;;5.67;3.37;;;;;;;18.14;100.00;100999.50;8310198;28;20042;-58
2023/08/23 01:30:13;;;;;;;7.32;3.72;;;;;;;18.18;100.00;101003.56;8321299;28;20030;-59
2023/08/23 01:34:25;;;;;;;7.43;3.78;;;;;;;18.18;100.00;101000.81;8295387;28;20499;-58
2023/08/23 01:38:26;;;;;;;5.20;3.50;;;;;;;18.11;100.00;101000.69;8304174;28;20044;-57
2023/08/23 01:42:27;;;;;;;4.45;3.05;;;;;;;18.10;100.00;100998.97;8307658;28;20041;-58
2023/08/23 01:46:28;;;;;;;5.85;3.45;;;;;;;17.91;100.00;100993.06;8309663;28;20112;-58
2023/08/23 01:50:28;;;;;;;6.00;3.47;;;;;;;18.02;100.00;100990.78;8308826;28;20049;-58
2023/08/23 01:54:29;;;;;;;5.63;3.58;;;;;;;18.20;100.00;100988.66;8307392;28;20124;-58
2023/08/23 01:58:30;;;;;;;8.85;3.50;;;;;;;18.07;100.00;100982.03;8307745;28;20315;-59
2023/08/23 02:02:31;;;;;;;6.80;3.85;;;;;;;17.96;100.00;100986.03;8306226;28;20517;-58
2023/08/23 02:06:31;;;;;;;5.40;3.40;;;;;;;17.89;100.00;100985.03;8306289;28;20084;-59
2023/08/23 02:10:32;;;;;;;6.45;3.58;;;;;;;17.73;100.00;100985.09;8306724;28;20046;-59
2023/08/23 02:14:32;;;;;;;5.65;3.47;;;;;;;17.64;100.00;100988.88;8308396;28;20443;-58
2023/08/23 02:18:33;;;;;;;4.82;3.88;;;;;;;17.69;100.00;100993.81;8308277;28;20195;-58
2023/08/23 02:22:33;;;;;;;5.32;3.33;;;;;;;17.79;100.00;100984.38;8305491;28;20045;-59
2023/08/23 02:26:35;;;;;;;4.63;3.08;;;;;;;17.71;100.00;100981.66;8305334;28;20131;-59
2023/08/23 02:30:36;;;;;;;6.78;3.28;;;;;;;17.56;100.00;100988.88;8305004;28;20048;-59
2023/08/23 02:34:37;;;;;;;6.00;3.95;;;;;;;17.65;100.00;100974.16;8304693;28;20053;-59
2023/08/23 02:38:38;;;;;;;12.20;4.07;;;;;;;17.68;100.00;100975.72;8302225;28;20095;-60
2023/08/23 02:42:39;;;;;;;7.85;3.55;;;;;;;17.52;100.00;100976.59;8305993;28;20037;-59
2023/08/23 02:46:39;;;;;;;4.32;3.40;;;;;;;17.54;100.00;100975.38;8308100;28;20042;-58
2023/08/23 02:50:42;;;;;;;5.90;3.67;;;;;;;17.46;100.00;100972.69;8307162;28;20037;-59
2023/08/23 02:54:43;;;;;;;13.93;3.83;;;;;;;17.46;100.00;100971.81;8305793;28;20038;-59
2023/08/23 02:58:43;;;;;;;14.52;4.35;;;;;;;17.39;100.00;100963.41;8306257;28;20096;-59
2023/08/23 03:02:45;;;;;;;10.77;3.78;;;;;;;17.32;100.00;100964.28;8304185;28;20511;-59
2023/08/23 03:06:46;;;;;;;6.57;3.70;;;;;;;17.29;100.00;100950.94;8303174;28;20380;-59
2023/08/23 03:10:46;;;;;;;5.90;3.90;;;;;;;17.43;100.00;100956.63;8305388;28;20048;-59
2023/08/23 03:14:47;;;;;;;8.15;4.38;;;;;;;17.58;100.00;100962.22;8307034;28;20522;-59
2023/08/23 03:18:47;;;;;;;7.60;4.30;;;;;;;17.50;100.00;100962.22;8306227;28;20038;-59
2023/08/23 03:22:48;;;;;;;9.27;4.25;;;;;;;17.45;100.00;100964.66;8304840;28;20064;-59
2023/08/23 03:26:49;;;;;;;5.72;4.18;;;;;;;17.58;100.00;100965.81;8304984;28;20564;-59
2023/08/23 03:30:50;;;;;;;7.05;4.55;;;;;;;17.44;100.00;100971.13;8300160;28;20526;-58
2023/08/23 03:34:51;;;;;;;7.40;4.47;;;;;;;17.51;100.00;100974.88;8302268;28;20392;-58
2023/08/23 03:38:51;;;;;;;11.27;4.55;;;;;;;17.40;100.00;100962.41;8306322;28;20048;-59
2023/08/23 03:42:52;;;;;;;5.15;3.95;;;;;;;17.23;100.00;100970.81;8305987;28;20052;-60
2023/08/23 03:46:57;;;;;;;4.72;3.92;;;;;;;17.13;100.00;100964.63;8304651;28;20535;-59
2023/08/23 03:50:59;;;;;;;8.80;3.85;;;;;;;17.14;100.00;100960.91;8305224;28;20495;-60
2023/08/23 03:55:00;;;;;;;10.25;4.05;;;;;;;17.19;100.00;100947.56;8306628;28;20034;-59
2023/08/23 03:59:00;;;;;;;9.35;4.25;;;;;;;17.12;100.00;100952.88;8304331;28;20036;-60
2023/08/23 04:03:02;;;;;;;7.35;4.85;;;;;;;17.03;100.00;100948.44;8301940;28;20384;-59
2023/08/23 04:07:03;;;;;;;9.32;5.75;;;;;;;17.03;100.00;100953.03;8301737;28;20078;-60
2023/08/23 04:11:03;;;;;;;10.20;4.78;;;;;;;17.12;100.00;100946.56;8304983;28;20644;-60
2023/08/23 04:15:04;;;;;;;6.25;4.88;;;;;;;17.26;100.00;100949.44;8303548;28;20481;-59
2023/08/23 04:19:05;;;;;;;9.40;5.15;;;;;;;17.19;100.00;100948.41;8292496;28;20048;-59
2023/08/23 04:23:06;;;;;;;5.95;4.35;;;;;;;17.17;100.00;100944.16;8300144;28;20041;-59
2023/08/23 04:27:06;;;;;;;7.60;4.35;;;;;;;17.13;100.00;100953.72;8301723;28;20495;-60
2023/08/23 04:31:07;;;;;;;9.02;4.68;;;;;;;17.13;100.00;100953.72;8306607;28;20042;-60
2023/08/23 04:35:17;;;;;;;10.25;5.18;;;;;;;17.02;100.00;100963.09;8294777;28;20045;-60
2023/08/23 04:39:18;;;;;;;9.00;5.20;;;;;;;17.02;100.00;100956.81;8309760;28;20045;-60
2023/08/23 04:43:19;;;;;;;7.93;5.30;;;;;;;17.00;100.00;100964.31;8330494;28;20037;-60
2023/08/23 04:47:19;;;;;;;7.07;5.50;;;;;;;17.12;100.00;100963.81;8310282;28;20038;-60
2023/08/23 04:51:22;;;;;;;10.32;5.68;;;;;;;17.08;100.00;100961.59;8310883;28;20057;-61
2023/08/23 04:55:23;;;;;;;8.98;5.57;;;;;;;17.19;100.00;100962.09;8310476;28;20067;-60
2023/08/23 04:59:24;;;;;;;9.20;5.05;;;;;;;17.23;100.00;100965.34;8310381;28;20337;-61
2023/08/23 05:03:26;;;;;;;7.78;4.82;;;;;;;17.25;100.00;100972.31;8305952;28;20085;-60
2023/08/23 05:07:27;;;;;;;6.18;5.07;;;;;;;17.29;100.00;100967.34;8310338;28;20038;-60
2023/08/23 05:11:29;;;;;;;8.35;5.32;;;;;;;17.46;100.00;100972.69;8332996;28;20043;-60
2023/08/23 05:15:33;;;;;;;10.63;5.28;;;;;;;17.52;100.00;100971.13;8310712;28;20184;-60
2023/08/23 05:19:34;;;;;;;9.05;5.45;;;;;;;17.55;100.00;100976.25;8307576;28;20097;-61
2023/08/23 05:23:35;;;;;;;6.63;5.13;;;;;;;17.56;100.00;100977.94;8302481;28;20132;-61
2023/08/23 05:27:35;;;;;;;7.65;5.03;;;;;;;17.61;100.00;100975.53;8303335;28;20255;-59
2023/08/23 05:31:36;;;;;;;6.47;5.25;;;;;;;17.85;100.00;100972.75;8300146;28;20038;-59
2023/08/23 05:35:36;;;;;;;7.50;4.80;;;;;;;17.96;100.00;100971.50;8303755;28;20032;-60
2023/08/23 05:39:37;;;;;;;9.68;4.60;;;;;;;18.10;100.00;100982.56;8304645;28;20576;-60
2023/08/23 05:43:38;;;;;;;9.00;4.65;;;;;;;18.65;100.00;100971.50;8304221;28;20104;-60
2023/08/23 05:47:38;;;;;;;7.45;4.40;;;;;;;18.66;100.00;100974.06;8307146;28;20041;-60
2023/08/23 05:51:39;;;;;;;7.97;4.57;;;;;;;18.81;100.00;100988.69;8330529;28;20038;-60
2023/08/23 05:55:39;;;;;;;7.95;4.57;;;;;;;18.94;100.00;100983.44;8308062;28;20091;-60
2023/08/23 05:59:40;;;;;;;9.80;4.72;;;;;;;19.13;100.00;100985.66;8306724;28;20458;-59
2023/08/23 06:03:41;;;;;;;15.80;5.35;;;;;;;19.20;100.00;100974.84;8302076;28;20029;-60
2023/08/23 06:07:41;;;;;;;8.13;4.45;;;;;;;19.56;99.83;100983.25;8307485;28;20042;-60
2023/08/23 06:11:42;;;;;;;5.45;4.25;;;;;;;19.64;98.97;100986.75;8308999;28;20566;-59
2023/08/23 06:15:43;;;;;;;6.22;4.13;;;;;;;19.63;98.48;100981.47;8308523;28;20037;-60
2023/08/23 06:19:43;;;;;;;9.98;3.90;;;;;;;19.90;98.47;100980.81;8306611;28;20034;-60
2023/08/23 06:23:43;;;;;;;9.15;4.35;;;;;;;19.88;97.98;100978.25;8307066;28;20042;-60
2023/08/23 06:27:45;;;;;;;12.48;4.78;;;;;;;20.20;98.74;100975.16;8306291;28;20060;-60
2023/08/23 06:31:45;;;;;;;8.15;4.07;;;;;;;20.36;95.86;100976.81;8306468;28;20411;-60
2023/08/23 06:35:46;;;;;;;7.28;3.80;;;;;;;20.45;94.27;100964.69;8305722;28;20465;-60
2023/08/23 06:39:46;;;;;;;8.00;4.15;;;;;;;20.56;94.36;100977.94;8307386;28;20036;-60
2023/08/23 06:43:47;;;;;;;7.20;4.22;;;;;;;20.79;92.86;100973.97;8306284;28;20042;-60
2023/08/23 06:47:49;;;;;;;6.13;3.40;;;;;;;20.96;91.12;100977.34;8307155;28;20045;-60
2023/08/23 06:51:50;;;;;;;7.35;3.75;;;;;;;21.25;90.73;100979.94;8307200;28;20529;-61
2023/08/23 06:55:50;;;;;;;5.95;3.88;;;;;;;21.55;88.36;100980.59;8306322;28;20265;-60
2023/08/23 06:59:51;;;;;;;8.82;3.65;;;;;;;21.76;87.69;100988.81;8304526;28;20487;-60
2023/08/23 07:03:51;;;;;;;7.72;3.35;;;;;;;22.03;87.24;100994.31;8299656;28;20034;-60
2023/08/23 07:07:52;;;;;;;8.73;3.45;;;;;;;22.29;86.36;100994.44;8302718;28;20037;-59
2023/08/23 07:11:52;;;;;;;8.50;3.30;;;;;;;22.65;83.85;100991.44;8301673;28;20084;-59
2023/08/23 07:15:52;;;;;;;6.32;3.25;;;;;;;22.64;82.89;100992.50;8304723;28;20499;-59
2023/08/23 07:19:55;;;;;;;10.38;3.80;;;;;;;22.87;83.89;100993.84;8306748;28;20045;-58
2023/08/23 07:23:56;;;;;;;4.93;2.60;;;;;;;23.26;82.82;101000.53;8305830;28;20038;-58
2023/08/23 07:27:56;;;;;;;4.32;2.95;;;;;;;23.44;81.11;100997.94;8306995;28;20104;-59
2023/08/23 07:31:59;;;;;;;5.10;2.97;;;;;;;23.29;81.32;101009.22;8299520;28;20050;-58
2023/08/23 07:36:00;;;;;;;4.05;2.22;;;;;;;23.63;80.25;101002.66;8304611;28;20122;-58
2023/08/23 07:40:01;;;;;;;4.13;2.47;;;;;;;23.60;79.86;101014.13;8305270;28;20037;-59
2023/08/23 07:44:02;;;;;;;5.32;2.85;;;;;;;24.13;78.94;101021.28;8304644;28;22317;-59
2023/08/23 07:48:02;;;;;;;7.97;2.90;;;;;;;24.31;76.17;101025.06;8305424;28;20056;-59
2023/08/23 07:52:03;;;;;;;10.35;2.90;;;;;;;24.16;77.07;101023.63;8306842;28;20041;-58
2023/08/23 07:56:04;;;;;;;11.10;3.42;;;;;;;24.55;76.01;101026.28;8304592;28;20045;-58
2023/08/23 08:00:06;;;;;;;15.68;3.58;;;;;;;24.76;75.88;101028.72;8303197;28;20049;-59
2023/08/23 08:04:09;;;;;;;17.75;3.42;;;;;;;24.73;75.75;101040.28;8306488;28;20037;-59
2023/08/23 08:08:09;;;;;;;21.00;3.83;;;;;;;24.75;75.94;101038.09;8308374;28;20049;-59
2023/08/23 08:12:10;;;;;;;25.35;4.53;;;;;;;25.14;72.91;101032.38;8311883;28;20729;-59
2023/08/23 08:16:12;;;;;;;20.55;3.78;;;;;;;25.50;73.23;101032.56;8312141;28;20305;-58
2023/08/23 08:20:13;;;;;;;16.30;4.65;;;;;;;25.39;71.73;101043.50;8309986;28;20465;-60
2023/08/23 08:24:14;;;;;;;16.85;3.30;;;;;;;25.50;72.80;101040.03;8311575;28;20034;-60
2023/08/23 08:28:14;;;;;;;21.13;4.20;;;;;;;26.30;72.65;101046.31;8311825;28;20033;-60
2023/08/23 08:32:15;;;;;;;10.13;3.35;;;;;;;26.01;70.28;101041.50;8307796;28;20414;-60
2023/08/23 08:36:15;;;;;;;17.83;3.45;;;;;;;26.00;70.30;101045.34;8308172;28;20087;-60
2023/08/23 08:40:17;;;;;;;13.73;3.72;;;;;;;26.06;69.82;101044.44;8310179;28;20034;-59
2023/08/23 08:44:17;;;;;;;11.02;3.40;;;;;;;25.87;69.45;101039.91;8310040;28;20374;-60
2023/08/23 08:48:18;;;;;;;8.02;2.65;;;;;;;26.48;68.66;101039.94;8311150;28;20503;-60
2023/08/23 08:52:20;;;;;;;10.25;3.05;;;;;;;26.22;67.43;101037.44;8311298;28;20042;-60
2023/08/23 08:56:21;;;;;;;11.50;2.80;;;;;;;26.10;67.51;101034.59;8309831;28;20037;-60
2023/08/23 09:00:25;;;;;;;10.05;2.85;;;;;;;26.59;67.20;101025.28;8307873;28;20041;-60
2023/08/23 09:04:25;;;;;;;13.70;2.13;;;;;;;26.56;66.34;101032.13;8308179;28;20038;-60
2023/08/23 09:08:26;;;;;;;8.80;1.83;;;;;;;26.99;64.97;101033.97;8310906;28;20037;-60
2023/08/23 09:12:26;;;;;;;10.82;2.70;;;;;;;26.84;66.03;101026.88;8309131;28;20128;-60
2023/08/23 09:16:27;;;;;;;7.47;2.20;;;;;;;27.00;65.66;101024.53;8309825;28;20105;-60
2023/08/23 09:20:27;;;;;;;8.82;2.35;;;;;;;27.46;64.92;101019.16;8310464;28;20034;-60
2023/08/23 09:24:28;;;;;;;5.97;1.98;;;;;;;27.73;66.61;101014.84;8308878;28;20045;-60
2023/08/23 09:28:29;;;;;;;10.88;1.92;;;;;;;27.88;62.74;101013.34;8308391;28;20052;-59
2023/08/23 09:32:30;;;;;;;12.30;2.40;;;;;;;27.59;61.98;101013.38;8302995;28;20041;-59
2023/08/23 09:36:47;;;;;;;14.73;2.75;;;;;;;27.46;62.26;101002.50;8306465;28;20037;-59
2023/08/23 09:40:48;;;;;;;6.88;2.00;;;;;;;28.33;60.96;101005.22;8309072;28;20491;-59
2023/08/23 09:44:51;;;;;;;13.60;1.95;;;;;;;29.20;59.26;101002.03;8308265;28;20049;-59
2023/08/23 09:48:54;;;;;;;9.85;2.28;;;;;;;29.98;56.13;101011.19;8308750;28;20081;-59
2023/08/23 09:53:04;;;;;;;7.57;1.45;;;;;;;32.06;53.02;101003.03;8310071;28;20049;-59
2023/08/23 09:57:05;;;;;;;19.90;3.53;;;;;;;32.88;50.89;101004.06;8304637;28;20338;-59
2023/08/23 10:01:06;;;;;;;8.95;2.47;;;;;;;32.87;50.08;101009.94;8306895;28;20080;-60
2023/08/23 10:05:11;;;;;;;6.57;2.17;;;;;;;33.60;49.72;101004.75;8303781;28;20045;-59
2023/08/23 10:09:12;;;;;;;9.32;2.10;;;;;;;35.07;48.48;101000.50;8302806;28;20235;-59
2023/08/23 10:13:13;;;;;;;9.40;1.92;;;;;;;33.92;49.06;100991.31;8307444;28;20037;-59
2023/08/23 10:17:16;;;;;;;14.05;2.30;;;;;;;34.00;48.23;100987.09;8309294;28;20041;-59
2023/08/23 10:21:17;;;;;;;5.85;2.33;;;;;;;34.58;47.25;100993.97;8307678;28;20457;-58
2023/08/23 10:25:19;;;;;;;7.40;2.38;;;;;;;35.10;47.27;100988.66;8304343;28;20034;-59
2023/08/23 10:29:28;;;;;;;10.10;2.33;;;;;;;36.10;46.14;100985.03;8306470;28;20113;-59
2023/08/23 10:33:30;;;;;;;6.50;2.25;;;;;;;34.84;46.48;100993.56;8304073;28;20046;-59
2023/08/23 10:37:33;;;;;;;9.50;2.20;;;;;;;34.93;46.79;100991.00;8305859;28;20038;-58
2023/08/23 10:41:34;;;;;;;7.43;1.87;;;;;;;34.90;47.35;101002.84;8307407;28;20542;-58
2023/08/23 10:45:57;;;;;;;13.50;1.88;;;;;;;35.62;45.71;101000.13;8307962;28;20210;-58
2023/08/23 10:49:58;;;;;;;9.45;2.13;;;;;;;34.59;46.19;101001.25;8305031;28;20128;-60
2023/08/23 10:53:59;;;;;;;6.30;2.00;;;;;;;35.15;46.83;100994.25;8307616;28;20042;-60
2023/08/23 10:57:59;;;;;;;9.77;2.30;;;;;;;34.72;47.16;100990.25;8306256;28;20466;-60
2023/08/23 11:02:00;;;;;;;7.93;2.83;;;;;;;34.87;46.56;100981.78;8303886;28;20069;-60
2023/08/23 11:06:01;;;;;;;12.75;2.53;;;;;;;35.12;47.56;100978.81;8305442;28;20048;-60
2023/08/23 11:10:01;;;;;;;10.65;2.92;;;;;;;35.98;46.31;100983.78;8306831;28;20526;-60
2023/08/23 11:14:03;;;;;;;9.20;1.95;;;;;;;37.90;44.86;100981.69;8305998;28;20056;-60
2023/08/23 11:18:05;;;;;;;6.65;1.73;;;;;;;37.21;44.37;100974.09;8305015;28;20057;-60
2023/08/23 11:22:07;;;;;;;12.07;2.50;;;;;;;35.80;45.86;100974.06;8300681;28;20077;-61
2023/08/23 11:26:07;;;;;;;6.82;1.98;;;;;;;35.60;45.20;100971.44;8305404;28;20034;-60
2023/08/23 11:30:08;;;;;;;7.20;1.60;;;;;;;33.88;47.26;100973.34;8312048;28;20051;-60
2023/08/23 11:34:11;;;;;;;5.45;1.30;;;;;;;34.71;48.37;100976.47;8304582;28;20045;-60
2023/08/23 11:38:12;;;;;;;6.72;2.03;;;;;;;35.78;45.95;100967.91;8304153;28;20049;-59
2023/08/23 11:42:15;;;;;;;8.63;1.88;;;;;;;35.03;46.76;100963.69;8304682;28;20463;-59
2023/08/23 11:46:17;;;;;;;;;;;;;;;36.61;45.60;100974.88;8304842;28;20034;-60
2023/08/23 11:50:19;;;;;;;16.50;3.07;;;;;;;35.89;44.73;100969.50;8300707;28;19920;-59
2023/08/23 11:54:22;;;;;;;5.13;1.30;;;;;;;38.08;42.67;100965.84;8305898;28;20281;-59
2023/08/23 11:58:22;;;;;;;5.97;0.93;;;;;;;35.74;42.25;100964.81;8306236;28;20038;-59
2023/08/23 12:02:23;;;;;;;3.88;0.80;;;;;;;33.66;46.21;100967.16;8301787;28;20085;-59
2023/08/23 12:06:23;;;;;;;5.28;1.70;;;;;;;32.01;48.51;100961.00;8303032;28;20104;-59
2023/08/23 12:10:24;;;;;;;3.67;1.23;;;;;;;31.87;50.06;100951.41;8300530;28;20033;-59
2023/08/23 12:14:28;;;;;;;2.38;1.17;;;;;;;31.73;50.14;100939.81;8304596;28;20284;-59
2023/08/23 12:18:28;;;;;;;5.45;1.30;;;;;;;31.90;50.62;100948.91;8303486;28;20073;-59
2023/08/23 12:22:29;;;;;;;5.25;1.42;;;;;;;31.90;48.70;100948.09;8305590;28;20049;-59
2023/08/23 12:26:30;;;;;;;5.15;1.00;;;;;;;30.84;50.87;100942.63;8302790;28;20052;-59
2023/08/23 12:30:30;;;;;;;6.18;1.30;;;;;;;30.55;51.78;100932.75;8302459;28;20144;-59
2023/08/23 12:34:31;;;;;;;5.43;1.48;;;;;;;30.20;52.56;100928.44;8301183;28;20185;-59
2023/08/23 12:38:32;;;;;;;4.85;1.55;;;;;;;30.70;53.04;100930.16;8303139;28;20045;-59
2023/08/23 12:42:32;;;;;;;5.82;2.15;;;;;;;30.89;52.27;100928.72;8303357;28;20038;-60
2023/08/23 12:46:32;;;;;;;9.65;2.65;;;;;;;31.59;51.48;100929.38;8301738;28;20050;-59
2023/08/23 12:50:33;;;;;;;5.07;2.38;;;;;;;30.79;50.47;100912.69;8305024;28;20454;-58
2023/08/23 12:54:34;;;;;;;5.55;2.63;;;;;;;30.76;52.84;100929.13;8309459;28;20391;-59
2023/08/23 12:58:35;;;;;;;10.55;3.17;;;;;;;30.65;54.02;100922.56;8307608;28;20038;-59
2023/08/23 13:02:35;;;;;;;8.32;2.75;;;;;;;30.67;51.92;100916.72;8309867;28;20510;-59
2023/08/23 13:06:36;;;;;;;7.80;2.55;;;;;;;30.69;53.87;100917.28;8307014;28;20172;-58
2023/08/23 13:10:37;;;;;;;9.02;2.13;;;;;;;30.69;51.05;100917.28;8308041;28;20434;-59
2023/08/23 13:14:37;;;;;;;3.42;1.45;;;;;;;30.57;52.11;100916.56;8310988;28;20213;-59
2023/08/23 13:18:38;;;;;;;2.58;1.40;;;;;;;30.66;51.39;100917.78;8309687;28;20037;-58
2023/08/23 13:22:38;;;;;;;6.15;1.33;;;;;;;30.75;51.33;100907.88;8308478;28;20045;-59
2023/08/23 13:26:39;;;;;;;6.70;1.48;;;;;;;30.59;50.73;100900.41;8308632;28;20045;-59
2023/08/23 13:30:40;;;;;;;7.05;1.70;;;;;;;30.57;52.44;100902.63;8307877;28;20445;-59
2023/08/23 13:34:40;;;;;;;3.65;1.67;;;;;;;30.26;50.69;100888.34;8306668;28;20042;-59
2023/08/23 13:38:41;;;;;;;4.47;1.50;;;;;;;30.12;53.11;100884.19;8309861;28;20120;-59
2023/08/23 13:42:41;;;;;;;5.70;1.50;;;;;;;30.64;53.25;100892.94;8307815;28;20106;-60
2023/08/23 13:46:42;;;;;;;8.18;1.90;;;;;;;30.39;53.78;100876.75;8307294;28;20042;-59
2023/08/23 13:50:42;;;;;;;6.45;1.95;;;;;;;30.31;54.96;100880.00;8308903;28;20357;-59
2023/08/23 13:54:43;;;;;;;9.23;1.77;;;;;;;30.50;55.04;100868.50;8309696;28;20045;-59
2023/08/23 13:58:43;;;;;;;5.87;1.50;;;;;;;30.61;55.40;100881.47;8309622;28;20038;-59
2023/08/23 14:02:44;;;;;;;7.75;1.95;;;;;;;30.80;54.46;100885.59;8307976;28;20303;-59
2023/08/23 14:06:45;;;;;;;4.47;1.40;;;;;;;30.54;53.16;100870.50;8305712;28;20045;-60
2023/08/23 14:10:45;;;;;;;5.00;1.65;;;;;;;30.68;53.18;100871.78;8301512;28;20258;-60
2023/08/23 14:14:46;;;;;;;6.05;1.20;;;;;;;30.72;52.27;100872.94;8275289;28;20030;-59
2023/08/23 14:18:46;;;;;;;3.85;1.58;;;;;;;30.67;50.85;100870.06;8275354;28;20057;-59
2023/08/23 14:22:46;;;;;;;5.30;1.10;;;;;;;30.59;50.87;100862.19;8276056;28;20062;-59
2023/08/23 14:26:48;;;;;;;4.38;1.10;;;;;;;30.73;52.04;100866.22;8276246;28;20328;-60
2023/08/23 14:30:48;;;;;;;6.40;1.77;;;;;;;30.74;50.17;100864.31;8272215;28;20034;-59
2023/08/23 14:34:49;;;;;;;7.25;1.65;;;;;;;30.81;53.27;100863.00;8279441;28;20040;-60
2023/08/23 14:38:49;;;;;;;5.80;1.30;;;;;;;30.54;50.98;100858.47;8307195;28;20037;-60
2023/08/23 14:42:50;;;;;;;6.00;1.33;;;;;;;30.82;50.47;100850.72;8303424;28;20034;-59
2023/08/23 14:46:50;;;;;;;3.72;0.98;;;;;;;30.53;49.07;100845.63;8308232;28;20049;-58
2023/08/23 14:50:50;;;;;;;6.18;1.08;;;;;;;30.62;48.88;100844.06;8306511;28;20113;-60
2023/08/23 14:54:54;;;;;;;4.70;1.30;;;;;;;30.82;49.58;100838.69;8305100;28;20598;-60
2023/08/23 14:58:54;;;;;;;5.27;1.47;;;;;;;30.69;48.65;100828.78;8300079;28;20717;-60
2023/08/23 15:02:55;;;;;;;4.28;1.05;;;;;;;30.67;49.43;100830.16;8301491;28;20764;-60
2023/08/23 15:06:56;;;;;;;5.13;0.98;;;;;;;30.63;49.01;100837.34;8289060;28;20737;-59
2023/08/23 15:10:57;;;;;;;2.43;1.20;;;;;;;30.53;47.29;100842.84;8300408;28;20045;-59
2023/08/23 15:14:57;;;;;;;2.95;1.30;;;;;;;30.74;48.75;100841.97;8301817;28;20376;-60
2023/08/23 15:18:58;;;;;;;5.20;1.40;;;;;;;30.65;50.35;100836.00;8290828;28;20050;-63
2023/08/23 15:22:58;;;;;;;2.92;1.15;;;;;;;30.65;49.49;100843.53;8295619;28;20045;-63
2023/08/23 15:26:59;;;;;;;3.20;1.05;;;;;;;30.63;48.74;100845.72;8302181;28;20041;-62
2023/08/23 15:31:03;;;;;;;1.95;1.08;;;;;;;30.55;48.56;100849.84;8303241;28;20052;-62
2023/08/23 15:35:04;;;;;;;3.75;1.25;;;;;;;30.36;49.78;100843.78;8303445;28;20105;-63
2023/08/23 15:39:05;;;;;;;3.10;1.25;;;;;;;30.46;49.16;100845.00;8281961;28;20081;-63
2023/08/23 15:43:06;;;;;;;4.35;1.20;;;;;;;30.39;49.67;100843.28;8301007;28;20064;-63
2023/08/23 15:47:07;;;;;;;7.25;1.30;;;;;;;30.42;52.42;100842.75;8303064;28;20033;-63
2023/08/23 15:51:08;;;;;;;1.65;1.00;;;;;;;30.42;50.80;100851.13;8302478;28;20052;-63
2023/08/23 15:55:09;;;;;;;3.55;1.27;;;;;;;30.22;50.62;100845.28;8300259;28;20045;-62
2023/08/23 15:59:11;;;;;;;4.32;1.25;;;;;;;30.23;50.75;100835.84;8300376;28;20120;-62
2023/08/23 16:03:12;;;;;;;3.80;1.25;;;;;;;30.09;51.08;100840.09;8302373;28;20054;-62
2023/08/23 16:07:13;;;;;;;4.07;1.60;;;;;;;30.06;50.69;100840.59;8300580;28;20092;-63
2023/08/23 16:11:13;;;;;;;14.82;1.83;;;;;;;30.03;51.33;100838.34;8303842;28;20632;-61
2023/08/23 16:15:14;;;;;;;5.95;1.70;;;;;;;30.00;53.29;100836.06;8302309;28;20063;-62
2023/08/23 16:19:14;;;;;;;3.78;1.27;;;;;;;30.12;49.24;100833.13;8307197;28;20041;-62
2023/08/23 16:23:15;;;;;;;3.55;1.20;;;;;;;30.10;48.26;100827.81;8305120;28;20399;-62
2023/08/23 16:27:15;;;;;;;3.03;1.30;;;;;;;30.14;48.90;100837.38;8312573;28;20041;-62
2023/08/23 16:31:16;;;;;;;4.55;1.00;;;;;;;30.13;49.96;100835.66;8305078;28;20416;-60
2023/08/23 16:35:16;;;;;;;5.65;1.48;;;;;;;30.03;51.34;100827.19;8305695;28;20079;-60
2023/08/23 16:39:17;;;;;;;2.22;1.05;;;;;;;29.99;50.13;100823.22;8307378;28;20052;-60
2023/08/23 16:43:17;;;;;;;1.85;1.00;;;;;;;29.91;51.27;100817.25;8309732;28;20065;-60
2023/08/23 16:47:18;;;;;;;2.47;1.08;;;;;;;29.79;51.67;100806.22;8307771;28;20065;-60
2023/08/23 16:51:18;;;;;;;3.60;1.00;;;;;;;29.78;51.63;100798.97;8305662;28;20046;-59
2023/08/23 16:55:19;;;;;;;9.43;1.40;;;;;;;29.73;51.41;100804.47;8310919;28;20103;-60
2023/08/23 16:59:19;;;;;;;2.40;1.33;;;;;;;29.77;51.01;100802.88;8308941;28;20025;-60
2023/08/23 17:03:20;;;;;;;5.75;1.50;;;;;;;29.69;50.95;100802.47;8307733;28;20029;-60
2023/08/23 17:07:20;;;;;;;2.53;1.25;;;;;;;29.59;50.41;100794.78;8305317;28;20042;-60
2023/08/23 17:11:20;;;;;;;2.15;1.40;;;;;;;29.47;50.10;100799.63;8308195;28;20098;-60
2023/08/23 17:15:22;;;;;;;2.42;1.52;;;;;;;29.41;50.98;100797.88;8302908;28;20034;-60
2023/08/23 17:19:22;;;;;;;3.78;1.05;;;;;;;29.33;51.11;100803.88;8305181;28;20635;-60
2023/08/23 17:23:22;;;;;;;4.53;1.33;;;;;;;29.26;51.86;100792.09;8305824;28;20045;-60
2023/08/23 17:27:23;;;;;;;3.70;1.55;;;;;;;29.15;52.37;100787.44;8304573;28;20702;-59
2023/08/23 17:31:24;;;;;;;3.67;1.40;;;;;;;29.02;53.97;100790.56;8302416;28;20132;-59
2023/08/23 17:35:24;;;;;;;6.22;1.40;;;;;;;28.98;53.17;100802.47;8303625;28;20495;-60
2023/08/23 17:39:25;;;;;;;6.97;1.20;;;;;;;28.90;52.97;100806.50;8305911;28;20037;-59
2023/08/23 17:43:26;;;;;;;4.57;1.10;;;;;;;28.80;52.19;100798.00;8307847;28;20426;-59
2023/08/23 17:47:27;;;;;;;3.90;1.17;;;;;;;28.72;51.39;100808.72;8307271;28;20037;-60
2023/08/23 17:51:27;;;;;;;4.30;1.47;;;;;;;28.64;51.25;100807.19;8278264;28;20095;-59
2023/08/23 17:55:27;;;;;;;3.92;1.13;;;;;;;28.52;50.64;100789.72;8274485;28;20368;-60
2023/08/23 17:59:29;;;;;;;4.35;1.25;;;;;;;28.36;51.13;100805.22;8275448;28;20042;-59
2023/08/23 18:03:29;;;;;;;4.97;1.90;;;;;;;28.26;51.67;100804.19;8273199;28;20044;-60
2023/08/23 18:07:30;;;;;;;1.60;1.08;;;;;;;28.16;51.42;100801.22;8271968;28;20046;-59
2023/08/23 18:11:51;;;;;;;2.30;1.10;;;;;;;28.03;51.68;100812.66;8272569;28;20042;-60
2023/08/23 18:15:52;;;;;;;2.22;1.10;;;;;;;27.83;52.21;100798.28;8268021;28;20081;-59
2023/08/23 18:19:52;;;;;;;4.80;1.85;;;;;;;27.69;52.42;100802.44;8287985;28;20064;-59
2023/08/23 18:23:54;;;;;;;3.20;1.45;;;;;;;27.56;52.81;100808.25;8305380;28;20060;-60
2023/08/23 18:27:55;;;;;;;1.73;1.23;;;;;;;27.50;51.83;100806.47;8305696;28;20076;-59
2023/08/23 18:31:55;;;;;;;3.55;1.20;;;;;;;27.31;52.78;100810.47;8307014;28;20040;-59
2023/08/23 18:35:58;;;;;;;5.30;1.50;;;;;;;26.89;55.88;100811.66;8304496;28;20030;-59